sensor_id;sensor_type;location;lat;lon;timestamp;pressure;altitude;pressure_sealevel;temperature;humidity
60015;BME280;45867;52.480;6.056;2022-12-18T00:01:27;102893.25;;;-5.37;100.00
60015;BME280;45867;52.480;6.056;2022-12-18T00:03:54;102869.31;;;-5.52;100.00
60015;BME280;45867;52.480;6.056;2022-12-18T00:06:21;102884.28;;;-5.44;100.00
60015;BME280;45867;52.480;6.056;2022-12-18T00:08:47;102865.09;;;-5.53;100.00
60015;BME280;45867;52.480;6.056;2022-12-18T00:11:16;102879.78;;;-5.53;100.00
60015;BME280;45867;52.480;6.056;2022-12-18T00:13:43;102868.44;;;-5.64;100.00
60015;BME280;45867;52.480;6.056;2022-12-18T00:16:12;102869.56;;;-5.68;100.00
60015;BME280;45867;52.480;6.056;2022-12-18T00:18:38;102872.28;;;-5.69;100.00
60015;BME280;45867;52.480;6.056;2022-12-18T00:21:06;102879.50;;;-5.62;100.00
60015;BME280;45867;52.480;6.056;2022-12-18T00:23:33;102853.03;;;-5.65;100.00
60015;BME280;45867;52.480;6.056;2022-12-18T00:26:00;102862.59;;;-5.54;100.00
60015;BME280;45867;52.480;6.056;2022-12-18T00:28:26;102849.09;;;-5.58;100.00
60015;BME280;45867;52.480;6.056;2022-12-18T00:31:05;102838.75;;;-5.58;100.00
60015;BME280;45867;52.480;6.056;2022-12-18T00:33:31;102850.31;;;-5.51;100.00
60015;BME280;45867;52.480;6.056;2022-12-18T00:36:05;102843.03;;;-5.46;100.00
60015;BME280;45867;52.480;6.056;2022-12-18T00:38:31;102830.06;;;-5.57;100.00
60015;BME280;45867;52.480;6.056;2022-12-18T00:40:56;102854.59;;;-5.39;100.00
60015;BME280;45867;52.480;6.056;2022-12-18T00:43:22;102839.25;;;-5.53;100.00
60015;BME280;45867;52.480;6.056;2022-12-18T00:45:47;102865.38;;;-5.45;100.00
60015;BME280;45867;52.480;6.056;2022-12-18T00:48:13;102860.75;;;-5.52;100.00
60015;BME280;45867;52.480;6.056;2022-12-18T00:50:38;102861.06;;;-5.57;100.00
60015;BME280;45867;52.480;6.056;2022-12-18T00:53:04;102865.63;;;-5.61;100.00
60015;BME280;45867;52.480;6.056;2022-12-18T00:55:30;102847.28;;;-5.69;100.00
60015;BME280;45867;52.480;6.056;2022-12-18T00:58:12;102864.22;;;-5.65;100.00
60015;BME280;45867;52.480;6.056;2022-12-18T01:00:38;102848.22;;;-5.70;100.00
60015;BME280;45867;52.480;6.056;2022-12-18T01:03:04;102849.47;;;-5.75;100.00
60015;BME280;45867;52.480;6.056;2022-12-18T01:05:30;102854.16;;;-5.81;100.00
60015;BME280;45867;52.480;6.056;2022-12-18T01:07:56;102857.88;;;-5.85;100.00
60015;BME280;45867;52.480;6.056;2022-12-18T01:10:22;102853.84;;;-5.89;100.00
60015;BME280;45867;52.480;6.056;2022-12-18T01:12:47;102847.22;;;-6.04;100.00
60015;BME280;45867;52.480;6.056;2022-12-18T01:15:14;102868.28;;;-5.97;100.00
60015;BME280;45867;52.480;6.056;2022-12-18T01:17:40;102847.34;;;-6.06;100.00
60015;BME280;45867;52.480;6.056;2022-12-18T01:20:06;102836.00;;;-6.16;100.00
60015;BME280;45867;52.480;6.056;2022-12-18T01:22:35;102847.03;;;-6.14;100.00
60015;BME280;45867;52.480;6.056;2022-12-18T01:25:01;102828.03;;;-6.13;100.00
60015;BME280;45867;52.480;6.056;2022-12-18T01:27:27;102841.66;;;-6.11;100.00
60015;BME280;45867;52.480;6.056;2022-12-18T01:29:55;102836.88;;;-6.04;100.00
60015;BME280;45867;52.480;6.056;2022-12-18T01:32:21;102844.03;;;-6.08;100.00
60015;BME280;45867;52.480;6.056;2022-12-18T01:34:47;102852.38;;;-6.04;100.00
60015;BME280;45867;52.480;6.056;2022-12-18T01:37:12;102844.97;;;-6.21;100.00
60015;BME280;45867;52.480;6.056;2022-12-18T01:39:40;102829.50;;;-6.21;100.00
60015;BME280;45867;52.480;6.056;2022-12-18T01:42:14;102822.88;;;-6.26;100.00
60015;BME280;45867;52.480;6.056;2022-12-18T01:49:46;102878.19;;;-6.04;100.00
60015;BME280;45867;52.480;6.056;2022-12-18T01:52:11;102873.03;;;-6.17;100.00
60015;BME280;45867;52.480;6.056;2022-12-18T01:54:37;102866.97;;;-6.29;100.00
60015;BME280;45867;52.480;6.056;2022-12-18T01:57:04;102888.53;;;-6.30;100.00
60015;BME280;45867;52.480;6.056;2022-12-18T01:59:32;102879.25;;;-6.32;100.00
60015;BME280;45867;52.480;6.056;2022-12-18T02:01:59;102858.53;;;-6.43;100.00
60015;BME280;45867;52.480;6.056;2022-12-18T02:04:26;102880.06;;;-6.44;100.00
60015;BME280;45867;52.480;6.056;2022-12-18T02:07:01;102863.88;;;-6.59;100.00
60015;BME280;45867;52.480;6.056;2022-12-18T02:09:43;102855.84;;;-6.67;100.00
60015;BME280;45867;52.480;6.056;2022-12-18T02:12:23;102885.88;;;-6.54;100.00
60015;BME280;45867;52.480;6.056;2022-12-18T02:15:00;102892.25;;;-6.59;100.00
60015;BME280;45867;52.480;6.056;2022-12-18T02:17:50;102881.13;;;-6.60;100.00
60015;BME280;45867;52.480;6.056;2022-12-18T02:20:46;102876.47;;;-6.67;100.00
60015;BME280;45867;52.480;6.056;2022-12-18T02:26:28;102888.75;;;-6.71;100.00
60015;BME280;45867;52.480;6.056;2022-12-18T02:29:00;102880.88;;;-6.82;100.00
60015;BME280;45867;52.480;6.056;2022-12-18T02:31:30;102876.75;;;-6.85;100.00
60015;BME280;45867;52.480;6.056;2022-12-18T02:34:00;102875.91;;;-6.85;100.00
60015;BME280;45867;52.480;6.056;2022-12-18T02:36:28;102861.56;;;-7.02;100.00
60015;BME280;45867;52.480;6.056;2022-12-18T02:38:55;102884.88;;;-6.91;100.00
60015;BME280;45867;52.480;6.056;2022-12-18T02:41:22;102885.28;;;-6.97;100.00
60015;BME280;45867;52.480;6.056;2022-12-18T02:43:48;102887.34;;;-7.02;100.00
60015;BME280;45867;52.480;6.056;2022-12-18T02:46:28;102883.94;;;-7.03;100.00
60015;BME280;45867;52.480;6.056;2022-12-18T02:49:01;102883.75;;;-7.00;100.00
60015;BME280;45867;52.480;6.056;2022-12-18T02:51:57;102862.72;;;-7.06;100.00
60015;BME280;45867;52.480;6.056;2022-12-18T02:54:26;102870.03;;;-7.00;100.00
60015;BME280;45867;52.480;6.056;2022-12-18T02:56:55;102873.31;;;-7.11;100.00
60015;BME280;45867;52.480;6.056;2022-12-18T02:59:31;102861.75;;;-7.18;100.00
60015;BME280;45867;52.480;6.056;2022-12-18T03:02:16;102865.53;;;-7.24;100.00
60015;BME280;45867;52.480;6.056;2022-12-18T03:04:43;102858.22;;;-7.30;100.00
60015;BME280;45867;52.480;6.056;2022-12-18T03:07:18;102851.09;;;-7.26;100.00
60015;BME280;45867;52.480;6.056;2022-12-18T03:09:49;102837.06;;;-7.35;100.00
60015;BME280;45867;52.480;6.056;2022-12-18T03:12:24;102835.72;;;-7.41;100.00
60015;BME280;45867;52.480;6.056;2022-12-18T03:15:10;102845.00;;;-7.38;100.00
60015;BME280;45867;52.480;6.056;2022-12-18T03:17:41;102847.66;;;-7.40;100.00
60015;BME280;45867;52.480;6.056;2022-12-18T03:20:16;102848.88;;;-7.45;100.00
60015;BME280;45867;52.480;6.056;2022-12-18T03:22:45;102847.16;;;-7.45;100.00
60015;BME280;45867;52.480;6.056;2022-12-18T03:25:13;102860.94;;;-7.46;100.00
60015;BME280;45867;52.480;6.056;2022-12-18T03:27:44;102860.59;;;-7.54;100.00
60015;BME280;45867;52.480;6.056;2022-12-18T03:30:13;102857.94;;;-7.52;100.00
60015;BME280;45867;52.480;6.056;2022-12-18T03:32:48;102857.94;;;-7.52;100.00
60015;BME280;45867;52.480;6.056;2022-12-18T03:35:18;102848.66;;;-7.55;100.00
60015;BME280;45867;52.480;6.056;2022-12-18T03:37:45;102840.66;;;-7.65;100.00
60015;BME280;45867;52.480;6.056;2022-12-18T03:40:11;102849.13;;;-7.63;100.00
60015;BME280;45867;52.480;6.056;2022-12-18T03:42:47;102825.34;;;-7.81;100.00
60015;BME280;45867;52.480;6.056;2022-12-18T03:45:25;102840.25;;;-7.71;100.00
60015;BME280;45867;52.480;6.056;2022-12-18T03:48:07;102825.09;;;-7.76;100.00
60015;BME280;45867;52.480;6.056;2022-12-18T03:50:46;102840.53;;;-7.76;100.00
60015;BME280;45867;52.480;6.056;2022-12-18T03:56:08;102851.59;;;-7.88;100.00
60015;BME280;45867;52.480;6.056;2022-12-18T03:58:36;102841.81;;;-7.83;100.00
60015;BME280;45867;52.480;6.056;2022-12-18T04:01:05;102844.13;;;-7.78;100.00
60015;BME280;45867;52.480;6.056;2022-12-18T04:03:33;102841.00;;;-7.84;100.00
60015;BME280;45867;52.480;6.056;2022-12-18T04:06:00;102842.94;;;-7.87;100.00
60015;BME280;45867;52.480;6.056;2022-12-18T04:08:27;102830.06;;;-7.87;100.00
60015;BME280;45867;52.480;6.056;2022-12-18T04:10:53;102825.31;;;-7.93;100.00
60015;BME280;45867;52.480;6.056;2022-12-18T04:13:37;102827.84;;;-7.79;100.00
60015;BME280;45867;52.480;6.056;2022-12-18T04:16:03;102826.69;;;-7.88;100.00
60015;BME280;45867;52.480;6.056;2022-12-18T04:18:29;102818.31;;;-7.91;100.00
60015;BME280;45867;52.480;6.056;2022-12-18T04:20:55;102825.75;;;-7.87;100.00
60015;BME280;45867;52.480;6.056;2022-12-18T04:23:20;102820.88;;;-7.91;100.00
60015;BME280;45867;52.480;6.056;2022-12-18T04:25:46;102817.22;;;-7.87;100.00
60015;BME280;45867;52.480;6.056;2022-12-18T04:28:12;102822.56;;;-7.90;100.00
60015;BME280;45867;52.480;6.056;2022-12-18T04:30:38;102816.88;;;-7.95;100.00
60015;BME280;45867;52.480;6.056;2022-12-18T04:33:03;102803.66;;;-8.04;100.00
60015;BME280;45867;52.480;6.056;2022-12-18T04:35:29;102821.38;;;-7.99;100.00
60015;BME280;45867;52.480;6.056;2022-12-18T04:37:54;102820.72;;;-8.02;100.00
60015;BME280;45867;52.480;6.056;2022-12-18T04:40:19;102818.53;;;-8.09;100.00
60015;BME280;45867;52.480;6.056;2022-12-18T04:42:45;102823.50;;;-8.06;100.00
60015;BME280;45867;52.480;6.056;2022-12-18T04:45:10;102825.25;;;-8.06;100.00
60015;BME280;45867;52.480;6.056;2022-12-18T04:47:35;102831.75;;;-8.00;100.00
60015;BME280;45867;52.480;6.056;2022-12-18T04:50:01;102830.56;;;-7.95;100.00
60015;BME280;45867;52.480;6.056;2022-12-18T04:52:26;102831.47;;;-7.96;100.00
60015;BME280;45867;52.480;6.056;2022-12-18T04:54:52;102830.13;;;-8.01;100.00
60015;BME280;45867;52.480;6.056;2022-12-18T04:57:36;102825.06;;;-8.03;100.00
60015;BME280;45867;52.480;6.056;2022-12-18T05:00:02;102812.22;;;-8.17;100.00
60015;BME280;45867;52.480;6.056;2022-12-18T05:02:28;102839.94;;;-8.08;100.00
60015;BME280;45867;52.480;6.056;2022-12-18T05:04:53;102820.03;;;-8.19;100.00
60015;BME280;45867;52.480;6.056;2022-12-18T05:07:18;102837.94;;;-8.17;100.00
60015;BME280;45867;52.480;6.056;2022-12-18T05:09:44;102829.41;;;-8.18;100.00
60015;BME280;45867;52.480;6.056;2022-12-18T05:12:09;102826.19;;;-8.21;100.00
60015;BME280;45867;52.480;6.056;2022-12-18T05:14:34;102840.31;;;-8.14;100.00
60015;BME280;45867;52.480;6.056;2022-12-18T05:17:00;102834.16;;;-8.12;100.00
60015;BME280;45867;52.480;6.056;2022-12-18T05:19:25;102839.94;;;-8.08;100.00
60015;BME280;45867;52.480;6.056;2022-12-18T05:21:51;102828.13;;;-8.25;100.00
60015;BME280;45867;52.480;6.056;2022-12-18T05:24:16;102852.81;;;-8.22;100.00
60015;BME280;45867;52.480;6.056;2022-12-18T05:26:42;102839.59;;;-8.31;100.00
60015;BME280;45867;52.480;6.056;2022-12-18T05:29:07;102841.91;;;-8.26;100.00
60015;BME280;45867;52.480;6.056;2022-12-18T05:31:32;102846.94;;;-8.24;100.00
60015;BME280;45867;52.480;6.056;2022-12-18T05:33:58;102853.00;;;-8.26;100.00
60015;BME280;45867;52.480;6.056;2022-12-18T05:36:23;102852.81;;;-8.22;100.00
60015;BME280;45867;52.480;6.056;2022-12-18T05:38:48;102849.97;;;-8.32;100.00
60015;BME280;45867;52.480;6.056;2022-12-18T05:41:14;102860.91;;;-8.29;100.00
60015;BME280;45867;52.480;6.056;2022-12-18T05:43:40;102863.03;;;-8.21;100.00
60015;BME280;45867;52.480;6.056;2022-12-18T05:46:16;102844.31;;;-8.37;100.00
60015;BME280;45867;52.480;6.056;2022-12-18T05:48:44;102860.72;;;-8.26;100.00
60015;BME280;45867;52.480;6.056;2022-12-18T05:51:12;102873.94;;;-8.17;100.00
60015;BME280;45867;52.480;6.056;2022-12-18T05:53:40;102875.59;;;-8.16;100.00
60015;BME280;45867;52.480;6.056;2022-12-18T05:56:08;102876.88;;;-8.09;100.00
60015;BME280;45867;52.480;6.056;2022-12-18T05:58:34;102875.59;;;-8.16;100.00
60015;BME280;45867;52.480;6.056;2022-12-18T06:01:26;102847.41;;;-8.18;100.00
60015;BME280;45867;52.480;6.056;2022-12-18T06:03:52;102859.81;;;-8.10;100.00
60015;BME280;45867;52.480;6.056;2022-12-18T06:06:23;102868.34;;;-8.10;100.00
60015;BME280;45867;52.480;6.056;2022-12-18T06:08:49;102854.94;;;-8.15;100.00
60015;BME280;45867;52.480;6.056;2022-12-18T06:11:24;102856.03;;;-8.05;100.00
60015;BME280;45867;52.480;6.056;2022-12-18T06:13:51;102861.00;;;-8.01;100.00
60015;BME280;45867;52.480;6.056;2022-12-18T06:16:16;102842.06;;;-8.15;100.00
60015;BME280;45867;52.480;6.056;2022-12-18T06:18:42;102846.47;;;-8.17;100.00
60015;BME280;45867;52.480;6.056;2022-12-18T06:21:07;102850.34;;;-8.10;100.00
60015;BME280;45867;52.480;6.056;2022-12-18T06:23:33;102833.81;;;-8.20;100.00
60015;BME280;45867;52.480;6.056;2022-12-18T06:25:58;102845.81;;;-8.06;100.00
60015;BME280;45867;52.480;6.056;2022-12-18T06:28:24;102836.47;;;-8.07;100.00
60015;BME280;45867;52.480;6.056;2022-12-18T06:30:50;102837.75;;;-8.14;100.00
60015;BME280;45867;52.480;6.056;2022-12-18T06:33:16;102837.66;;;-8.13;100.00
60015;BME280;45867;52.480;6.056;2022-12-18T06:35:41;102827.19;;;-8.24;100.00
60015;BME280;45867;52.480;6.056;2022-12-18T06:38:07;102836.81;;;-8.13;100.00
60015;BME280;45867;52.480;6.056;2022-12-18T06:40:33;102827.03;;;-8.21;100.00
60015;BME280;45867;52.480;6.056;2022-12-18T06:42:58;102833.63;;;-8.17;100.00
60015;BME280;45867;52.480;6.056;2022-12-18T06:45:24;102811.03;;;-8.26;100.00
60015;BME280;45867;52.480;6.056;2022-12-18T06:47:50;102790.75;;;-8.31;100.00
60015;BME280;45867;52.480;6.056;2022-12-18T06:50:15;102810.38;;;-8.15;100.00
60015;BME280;45867;52.480;6.056;2022-12-18T06:52:41;102796.06;;;-8.19;100.00
60015;BME280;45867;52.480;6.056;2022-12-18T06:55:11;102814.97;;;-8.06;100.00
60015;BME280;45867;52.480;6.056;2022-12-18T06:57:37;102814.22;;;-8.08;100.00
60015;BME280;45867;52.480;6.056;2022-12-18T07:00:05;102814.22;;;-8.08;100.00
60015;BME280;45867;52.480;6.056;2022-12-18T07:02:31;102799.16;;;-8.14;100.00
60015;BME280;45867;52.480;6.056;2022-12-18T07:04:56;102808.59;;;-8.00;100.00
60015;BME280;45867;52.480;6.056;2022-12-18T07:07:22;102787.09;;;-7.99;100.00
60015;BME280;45867;52.480;6.056;2022-12-18T07:09:49;102796.19;;;-7.94;100.00
60015;BME280;45867;52.480;6.056;2022-12-18T07:12:14;102787.47;;;-8.06;100.00
60015;BME280;45867;52.480;6.056;2022-12-18T07:14:40;102791.53;;;-8.16;100.00
60015;BME280;45867;52.480;6.056;2022-12-18T07:17:05;102795.78;;;-8.15;100.00
60015;BME280;45867;52.480;6.056;2022-12-18T07:19:30;102789.63;;;-8.12;100.00
60015;BME280;45867;52.480;6.056;2022-12-18T07:21:56;102788.88;;;-8.14;100.00
60015;BME280;45867;52.480;6.056;2022-12-18T07:24:21;102791.81;;;-8.06;100.00
60015;BME280;45867;52.480;6.056;2022-12-18T07:26:46;102795.47;;;-7.96;100.00
60015;BME280;45867;52.480;6.056;2022-12-18T07:29:12;102797.91;;;-7.94;100.00
60015;BME280;45867;52.480;6.056;2022-12-18T07:31:38;102800.22;;;-7.90;100.00
60015;BME280;45867;52.480;6.056;2022-12-18T07:34:04;102802.06;;;-7.92;100.00
60015;BME280;45867;52.480;6.056;2022-12-18T07:36:29;102794.72;;;-7.98;100.00
60015;BME280;45867;52.480;6.056;2022-12-18T07:38:55;102797.84;;;-7.93;100.00
60015;BME280;45867;52.480;6.056;2022-12-18T07:41:21;102789.38;;;-7.95;100.00
60015;BME280;45867;52.480;6.056;2022-12-18T07:43:47;102807.66;;;-7.85;100.00
60015;BME280;45867;52.480;6.056;2022-12-18T07:46:14;102806.84;;;-7.86;100.00
60015;BME280;45867;52.480;6.056;2022-12-18T07:48:41;102809.78;;;-7.92;100.00
60015;BME280;45867;52.480;6.056;2022-12-18T07:51:07;102795.31;;;-8.07;100.00
60015;BME280;45867;52.480;6.056;2022-12-18T07:53:34;102809.97;;;-7.95;100.00
60015;BME280;45867;52.480;6.056;2022-12-18T07:56:02;102811.97;;;-7.86;100.00
60015;BME280;45867;52.480;6.056;2022-12-18T07:58:28;102799.19;;;-7.87;100.00
60015;BME280;45867;52.480;6.056;2022-12-18T08:00:54;102782.34;;;-7.78;100.00
60015;BME280;45867;52.480;6.056;2022-12-18T08:03:26;102770.00;;;-7.73;100.00
60015;BME280;45867;52.480;6.056;2022-12-18T08:05:52;102769.06;;;-7.72;100.00
60015;BME280;45867;52.480;6.056;2022-12-18T08:08:17;102752.19;;;-7.76;100.00
60015;BME280;45867;52.480;6.056;2022-12-18T08:10:43;102765.94;;;-7.63;100.00
60015;BME280;45867;52.480;6.056;2022-12-18T08:13:08;102749.22;;;-7.70;100.00
60015;BME280;45867;52.480;6.056;2022-12-18T08:15:33;102749.13;;;-7.69;100.00
60015;BME280;45867;52.480;6.056;2022-12-18T08:18:02;102760.19;;;-7.54;100.00
60015;BME280;45867;52.480;6.056;2022-12-18T08:20:27;102758.03;;;-7.47;100.00
60015;BME280;45867;52.480;6.056;2022-12-18T08:22:53;102764.00;;;-7.47;100.00
60015;BME280;45867;52.480;6.056;2022-12-18T08:25:19;102757.09;;;-7.46;100.00
60015;BME280;45867;52.480;6.056;2022-12-18T08:27:44;102748.97;;;-7.40;100.00
60015;BME280;45867;52.480;6.056;2022-12-18T08:30:13;102755.78;;;-7.26;100.00
60015;BME280;45867;52.480;6.056;2022-12-18T08:32:38;102750.56;;;-7.25;100.00
60015;BME280;45867;52.480;6.056;2022-12-18T08:35:04;102746.00;;;-7.21;100.00
60015;BME280;45867;52.480;6.056;2022-12-18T08:37:29;102751.69;;;-7.03;100.00
60015;BME280;45867;52.480;6.056;2022-12-18T08:39:54;102718.81;;;-7.12;100.00
60015;BME280;45867;52.480;6.056;2022-12-18T08:42:20;102750.78;;;-6.89;100.00
60015;BME280;45867;52.480;6.056;2022-12-18T08:45:07;102748.38;;;-6.80;100.00
60015;BME280;45867;52.480;6.056;2022-12-18T08:47:33;102736.94;;;-6.76;100.00
60015;BME280;45867;52.480;6.056;2022-12-18T08:49:58;102741.25;;;-6.63;100.00
60015;BME280;45867;52.480;6.056;2022-12-18T08:52:23;102741.75;;;-6.58;100.00
60015;BME280;45867;52.480;6.056;2022-12-18T08:54:49;102744.03;;;-6.54;100.00
60015;BME280;45867;52.480;6.056;2022-12-18T08:57:15;102747.09;;;-6.49;100.00
60015;BME280;45867;52.480;6.056;2022-12-18T08:59:41;102738.75;;;-6.52;100.00
60015;BME280;45867;52.480;6.056;2022-12-18T09:02:09;102755.00;;;-6.39;100.00
60015;BME280;45867;52.480;6.056;2022-12-18T09:04:34;102760.28;;;-6.40;100.00
60015;BME280;45867;52.480;6.056;2022-12-18T09:07:02;102759.84;;;-6.34;100.00
60015;BME280;45867;52.480;6.056;2022-12-18T09:09:30;102750.56;;;-6.37;100.00
60015;BME280;45867;52.480;6.056;2022-12-18T09:11:56;102753.72;;;-6.20;100.00
60015;BME280;45867;52.480;6.056;2022-12-18T09:14:21;102749.03;;;-6.03;100.00
60015;BME280;45867;52.480;6.056;2022-12-18T09:16:46;102748.38;;;-5.93;100.00
60015;BME280;45867;52.480;6.056;2022-12-18T09:19:12;102737.22;;;-5.83;100.00
60015;BME280;45867;52.480;6.056;2022-12-18T09:21:37;102737.88;;;-5.68;100.00
60015;BME280;45867;52.480;6.056;2022-12-18T09:24:05;102720.50;;;-5.66;100.00
60015;BME280;45867;52.480;6.056;2022-12-18T09:26:30;102729.34;;;-5.46;100.00
60015;BME280;45867;52.480;6.056;2022-12-18T09:28:56;102737.25;;;-5.47;100.00
60015;BME280;45867;52.480;6.056;2022-12-18T09:31:23;102758.41;;;-5.31;100.00
60015;BME280;45867;52.480;6.056;2022-12-18T09:33:48;102740.34;;;-5.31;100.00
60015;BME280;45867;52.480;6.056;2022-12-18T09:36:16;102756.69;;;-5.08;100.00
60015;BME280;45867;52.480;6.056;2022-12-18T09:38:43;102751.19;;;-5.03;100.00
60015;BME280;45867;52.480;6.056;2022-12-18T09:43:58;102763.31;;;-4.93;100.00
60015;BME280;45867;52.480;6.056;2022-12-18T09:46:31;102769.44;;;-4.82;100.00
60015;BME280;45867;52.480;6.056;2022-12-18T09:49:06;102758.63;;;-4.76;100.00
60015;BME280;45867;52.480;6.056;2022-12-18T09:51:46;102745.09;;;-4.69;100.00
60015;BME280;45867;52.480;6.056;2022-12-18T09:54:18;102752.47;;;-4.64;100.00
60015;BME280;45867;52.480;6.056;2022-12-18T09:56:45;102736.63;;;-4.59;100.00
60015;BME280;45867;52.480;6.056;2022-12-18T09:59:21;102726.13;;;-4.47;100.00
60015;BME280;45867;52.480;6.056;2022-12-18T10:01:48;102704.13;;;-4.41;100.00
60015;BME280;45867;52.480;6.056;2022-12-18T10:04:14;102687.06;;;-4.32;100.00
60015;BME280;45867;52.480;6.056;2022-12-18T10:14:54;102673.22;;;-4.10;100.00
60015;BME280;45867;52.480;6.056;2022-12-18T10:17:28;102665.06;;;-4.06;100.00
60015;BME280;45867;52.480;6.056;2022-12-18T10:25:33;102653.84;;;-3.74;100.00
60015;BME280;45867;52.480;6.056;2022-12-18T10:28:09;102647.59;;;-3.71;100.00
60015;BME280;45867;52.480;6.056;2022-12-18T10:30:38;102648.84;;;-3.66;100.00
60015;BME280;45867;52.480;6.056;2022-12-18T10:33:04;102648.91;;;-3.56;100.00
60015;BME280;45867;52.480;6.056;2022-12-18T10:35:29;102649.34;;;-3.51;100.00
60015;BME280;45867;52.480;6.056;2022-12-18T10:43:23;102656.44;;;-3.22;100.00
60015;BME280;45867;52.480;6.056;2022-12-18T10:51:00;102633.69;;;-3.09;100.00
60015;BME280;45867;52.480;6.056;2022-12-18T10:53:28;102621.56;;;-3.08;100.00
60015;BME280;45867;52.480;6.056;2022-12-18T10:55:56;102629.09;;;-3.05;100.00
60015;BME280;45867;52.480;6.056;2022-12-18T10:58:58;102632.63;;;-3.06;100.00
60015;BME280;45867;52.480;6.056;2022-12-18T11:01:24;102622.66;;;-3.11;100.00
60015;BME280;45867;52.480;6.056;2022-12-18T11:06:20;102624.06;;;-2.97;100.00
60015;BME280;45867;52.480;6.056;2022-12-18T11:09:02;102626.66;;;-2.97;100.00
60015;BME280;45867;52.480;6.056;2022-12-18T11:11:28;102618.06;;;-2.88;100.00
60015;BME280;45867;52.480;6.056;2022-12-18T11:16:44;102630.50;;;-2.92;100.00
60015;BME280;45867;52.480;6.056;2022-12-18T11:21:46;102634.19;;;-2.84;100.00
60015;BME280;45867;52.480;6.056;2022-12-18T11:24:20;102630.38;;;-2.80;100.00
60015;BME280;45867;52.480;6.056;2022-12-18T11:26:46;102628.34;;;-2.86;100.00
60015;BME280;45867;52.480;6.056;2022-12-18T11:29:17;102629.97;;;-2.76;100.00
60015;BME280;45867;52.480;6.056;2022-12-18T11:31:43;102610.31;;;-2.78;100.00
60015;BME280;45867;52.480;6.056;2022-12-18T11:34:26;102607.72;;;-2.78;100.00
60015;BME280;45867;52.480;6.056;2022-12-18T11:36:54;102605.69;;;-2.75;100.00
60015;BME280;45867;52.480;6.056;2022-12-18T11:39:34;102595.00;;;-2.81;100.00
60015;BME280;45867;52.480;6.056;2022-12-18T11:42:10;102577.53;;;-2.79;100.00
60015;BME280;45867;52.480;6.056;2022-12-18T11:47:21;102582.72;;;-2.79;100.00
60015;BME280;45867;52.480;6.056;2022-12-18T11:49:51;102584.22;;;-2.77;100.00
60015;BME280;45867;52.480;6.056;2022-12-18T11:52:24;102587.63;;;-2.76;100.00
60015;BME280;45867;52.480;6.056;2022-12-18T11:55:09;102573.88;;;-2.67;100.00
60015;BME280;45867;52.480;6.056;2022-12-18T12:00:27;102572.09;;;-2.66;100.00
60015;BME280;45867;52.480;6.056;2022-12-18T12:14:01;102532.63;;;-2.60;100.00
60015;BME280;45867;52.480;6.056;2022-12-18T12:19:23;102516.63;;;-2.46;100.00
60015;BME280;45867;52.480;6.056;2022-12-18T12:22:24;102504.47;;;-2.46;100.00
60015;BME280;45867;52.480;6.056;2022-12-18T12:25:02;102492.31;;;-2.45;100.00
60015;BME280;45867;52.480;6.056;2022-12-18T12:27:45;102515.25;;;-2.31;100.00
60015;BME280;45867;52.480;6.056;2022-12-18T12:33:22;102509.91;;;-2.29;100.00
60015;BME280;45867;52.480;6.056;2022-12-18T12:38:42;102492.00;;;-2.32;100.00
60015;BME280;45867;52.480;6.056;2022-12-18T12:41:13;102499.53;;;-2.29;100.00
60015;BME280;45867;52.480;6.056;2022-12-18T12:44:02;102495.28;;;-2.30;100.00
60015;BME280;45867;52.480;6.056;2022-12-18T12:46:31;102486.41;;;-2.28;100.00
60015;BME280;45867;52.480;6.056;2022-12-18T12:49:02;102481.59;;;-2.32;100.00
60015;BME280;45867;52.480;6.056;2022-12-18T12:51:35;102473.28;;;-2.36;100.00
60015;BME280;45867;52.480;6.056;2022-12-18T12:54:03;102472.59;;;-2.28;100.00
60015;BME280;45867;52.480;6.056;2022-12-18T12:56:43;102465.78;;;-2.29;100.00
60015;BME280;45867;52.480;6.056;2022-12-18T13:02:38;102450.16;;;-2.19;100.00
60015;BME280;45867;52.480;6.056;2022-12-18T13:05:42;102464.41;;;-2.24;100.00
60015;BME280;45867;52.480;6.056;2022-12-18T13:08:08;102458.34;;;-2.24;100.00
60015;BME280;45867;52.480;6.056;2022-12-18T13:10:40;102451.38;;;-2.14;100.00
60015;BME280;45867;52.480;6.056;2022-12-18T13:13:08;102438.25;;;-2.22;100.00
60015;BME280;45867;52.480;6.056;2022-12-18T13:15:40;102447.44;;;-2.18;100.00
60015;BME280;45867;52.480;6.056;2022-12-18T13:20:42;102449.19;;;-2.18;100.00
60015;BME280;45867;52.480;6.056;2022-12-18T13:25:54;102437.59;;;-2.24;100.00
60015;BME280;45867;52.480;6.056;2022-12-18T13:30:57;102437.97;;;-2.19;100.00
60015;BME280;45867;52.480;6.056;2022-12-18T13:35:58;102434.44;;;-2.18;100.00
60015;BME280;45867;52.480;6.056;2022-12-18T13:43:48;102421.00;;;-2.13;100.00
60015;BME280;45867;52.480;6.056;2022-12-18T13:46:42;102424.44;;;-2.13;100.00
60015;BME280;45867;52.480;6.056;2022-12-18T13:51:44;102416.50;;;-2.11;100.00
60015;BME280;45867;52.480;6.056;2022-12-18T13:54:28;102420.72;;;-2.10;100.00
60015;BME280;45867;52.480;6.056;2022-12-18T13:56:55;102407.91;;;-2.12;100.00
60015;BME280;45867;52.480;6.056;2022-12-18T13:59:25;102414.81;;;-2.03;100.00
60015;BME280;45867;52.480;6.056;2022-12-18T14:01:59;102402.28;;;-2.07;100.00
60015;BME280;45867;52.480;6.056;2022-12-18T14:04:28;102411.69;;;-2.06;100.00
60015;BME280;45867;52.480;6.056;2022-12-18T14:07:01;102413.59;;;-2.08;100.00
60015;BME280;45867;52.480;6.056;2022-12-18T14:09:30;102422.78;;;-2.04;100.00
60015;BME280;45867;52.480;6.056;2022-12-18T14:11:56;102422.91;;;-2.06;100.00
60015;BME280;45867;52.480;6.056;2022-12-18T14:14:45;102424.16;;;-2.10;100.00
60015;BME280;45867;52.480;6.056;2022-12-18T14:17:12;102422.50;;;-2.11;100.00
60015;BME280;45867;52.480;6.056;2022-12-18T14:19:43;102404.19;;;-2.09;100.00
60015;BME280;45867;52.480;6.056;2022-12-18T14:22:18;102391.63;;;-2.14;100.00
60015;BME280;45867;52.480;6.056;2022-12-18T14:24:45;102394.66;;;-2.18;100.00